sensor_id;sensor_type;location;lat;lon;timestamp;pressure;altitude;pressure_sealevel;temperature;humidity
47670;BME280;33408;52.062;11.722;2023-10-09T00:01:01;101726.53;;;12.07;100.00
47670;BME280;33408;52.062;11.722;2023-10-09T00:03:32;101716.75;;;12.35;100.00
47670;BME280;33408;52.062;11.722;2023-10-09T00:06:02;101710.69;;;12.36;100.00
47670;BME280;33408;52.062;11.722;2023-10-09T00:08:29;101706.34;;;12.38;100.00
47670;BME280;33408;52.062;11.722;2023-10-09T00:10:59;101701.94;;;12.42;100.00
47670;BME280;33408;52.062;11.722;2023-10-09T00:13:39;101690.88;;;12.23;100.00
47670;BME280;33408;52.062;11.722;2023-10-09T00:16:15;101683.00;;;12.32;100.00
47670;BME280;33408;52.062;11.722;2023-10-09T00:18:50;101678.56;;;12.40;100.00
47670;BME280;33408;52.062;11.722;2023-10-09T00:21:19;101668.16;;;12.40;100.00
47670;BME280;33408;52.062;11.722;2023-10-09T00:23:48;101669.91;;;12.42;100.00
47670;BME280;33408;52.062;11.722;2023-10-09T00:26:21;101661.13;;;12.50;100.00
47670;BME280;33408;52.062;11.722;2023-10-09T00:28:48;101653.38;;;12.44;100.00
47670;BME280;33408;52.062;11.722;2023-10-09T00:31:17;101658.66;;;12.38;100.00
47670;BME280;33408;52.062;11.722;2023-10-09T00:33:53;101653.38;;;12.46;100.00
47670;BME280;33408;52.062;11.722;2023-10-09T00:36:21;101644.25;;;12.09;100.00
47670;BME280;33408;52.062;11.722;2023-10-09T00:38:52;101649.28;;;12.23;100.00
47670;BME280;33408;52.062;11.722;2023-10-09T00:41:19;101638.91;;;12.20;100.00
47670;BME280;33408;52.062;11.722;2023-10-09T00:43:45;101623.34;;;12.17;100.00
47670;BME280;33408;52.062;11.722;2023-10-09T00:46:15;101634.56;;;12.24;100.00
47670;BME280;33408;52.062;11.722;2023-10-09T00:48:51;101629.28;;;12.28;100.00
47670;BME280;33408;52.062;11.722;2023-10-09T00:51:20;101603.38;;;12.22;100.00
47670;BME280;33408;52.062;11.722;2023-10-09T00:53:51;101606.81;;;12.24;100.00
47670;BME280;33408;52.062;11.722;2023-10-09T00:56:19;101620.50;;;12.40;100.00
47670;BME280;33408;52.062;11.722;2023-10-09T00:58:56;101619.00;;;12.20;100.00
47670;BME280;33408;52.062;11.722;2023-10-09T01:01:35;101605.13;;;12.20;100.00
47670;BME280;33408;52.062;11.722;2023-10-09T01:04:10;101610.97;;;12.40;100.00
47670;BME280;33408;52.062;11.722;2023-10-09T01:06:41;101591.00;;;12.41;100.00
47670;BME280;33408;52.062;11.722;2023-10-09T01:09:13;101587.66;;;12.31;100.00
47670;BME280;33408;52.062;11.722;2023-10-09T01:11:42;101579.31;;;12.04;100.00
47670;BME280;33408;52.062;11.722;2023-10-09T01:14:28;101562.38;;;12.44;100.00
47670;BME280;33408;52.062;11.722;2023-10-09T01:16:56;101544.31;;;12.33;100.00
47670;BME280;33408;52.062;11.722;2023-10-09T01:19:25;101535.63;;;12.34;100.00
47670;BME280;33408;52.062;11.722;2023-10-09T01:21:54;101539.28;;;12.21;100.00
47670;BME280;33408;52.062;11.722;2023-10-09T01:24:29;101524.69;;;12.09;100.00
47670;BME280;33408;52.062;11.722;2023-10-09T01:26:57;101523.59;;;12.27;100.00
47670;BME280;33408;52.062;11.722;2023-10-09T01:29:25;101508.88;;;12.25;100.00
47670;BME280;33408;52.062;11.722;2023-10-09T01:31:54;101496.03;;;12.14;100.00
47670;BME280;33408;52.062;11.722;2023-10-09T01:34:21;101495.16;;;12.15;100.00
47670;BME280;33408;52.062;11.722;2023-10-09T01:37:03;101490.81;;;12.15;100.00
47670;BME280;33408;52.062;11.722;2023-10-09T01:39:31;101476.19;;;12.07;100.00
47670;BME280;33408;52.062;11.722;2023-10-09T01:42:05;101463.81;;;12.27;100.00
47670;BME280;33408;52.062;11.722;2023-10-09T01:44:32;101458.59;;;12.27;100.00
47670;BME280;33408;52.062;11.722;2023-10-09T01:47:01;101466.34;;;12.32;100.00
47670;BME280;33408;52.062;11.722;2023-10-09T01:49:33;101468.97;;;12.30;100.00
47670;BME280;33408;52.062;11.722;2023-10-09T01:52:02;101457.97;;;12.10;100.00
47670;BME280;33408;52.062;11.722;2023-10-09T01:54:36;101455.25;;;12.20;100.00
47670;BME280;33408;52.062;11.722;2023-10-09T01:57:07;101457.81;;;12.24;100.00
47670;BME280;33408;52.062;11.722;2023-10-09T01:59:37;101453.44;;;12.24;100.00
47670;BME280;33408;52.062;11.722;2023-10-09T02:02:09;101454.13;;;12.37;100.00
47670;BME280;33408;52.062;11.722;2023-10-09T02:04:50;101448.03;;;12.38;100.00
47670;BME280;33408;52.062;11.722;2023-10-09T02:07:16;101449.69;;;12.44;100.00
47670;BME280;33408;52.062;11.722;2023-10-09T02:09:49;101471.28;;;12.49;100.00
47670;BME280;33408;52.062;11.722;2023-10-09T02:12:15;101486.94;;;12.46;100.00
47670;BME280;33408;52.062;11.722;2023-10-09T02:14:43;101499.91;;;12.49;100.00
47670;BME280;33408;52.062;11.722;2023-10-09T02:17:09;101499.66;;;12.66;100.00
47670;BME280;33408;52.062;11.722;2023-10-09T02:19:43;101486.66;;;12.66;100.00
47670;BME280;33408;52.062;11.722;2023-10-09T02:22:13;101489.31;;;12.63;100.00
47670;BME280;33408;52.062;11.722;2023-10-09T02:24:42;101485.81;;;12.62;100.00
47670;BME280;33408;52.062;11.722;2023-10-09T02:27:19;101482.38;;;12.62;100.00
47670;BME280;33408;52.062;11.722;2023-10-09T02:30:03;101481.66;;;12.52;100.00
47670;BME280;33408;52.062;11.722;2023-10-09T02:32:40;101482.66;;;12.43;100.00
47670;BME280;33408;52.062;11.722;2023-10-09T02:35:08;101485.91;;;12.59;100.00
47670;BME280;33408;52.062;11.722;2023-10-09T02:37:44;101479.13;;;12.46;100.00
47670;BME280;33408;52.062;11.722;2023-10-09T02:40:12;101474.59;;;12.60;100.00
47670;BME280;33408;52.062;11.722;2023-10-09T02:42:49;101475.47;;;12.61;100.00
47670;BME280;33408;52.062;11.722;2023-10-09T02:45:16;101458.94;;;12.63;100.00
47670;BME280;33408;52.062;11.722;2023-10-09T02:47:44;101455.50;;;12.63;100.00
47670;BME280;33408;52.062;11.722;2023-10-09T02:50:14;101451.19;;;12.60;100.00
47670;BME280;33408;52.062;11.722;2023-10-09T02:52:46;101454.56;;;12.65;100.00
47670;BME280;33408;52.062;11.722;2023-10-09T02:55:13;101446.91;;;12.57;100.00
47670;BME280;33408;52.062;11.722;2023-10-09T02:57:50;101429.66;;;12.50;100.00
47670;BME280;33408;52.062;11.722;2023-10-09T03:00:29;101413.38;;;12.37;100.00
47670;BME280;33408;52.062;11.722;2023-10-09T03:02:58;101407.22;;;12.45;100.00
47670;BME280;33408;52.062;11.722;2023-10-09T03:05:25;101392.63;;;12.34;100.00
47670;BME280;33408;52.062;11.722;2023-10-09T03:07:54;101392.69;;;12.31;100.00
47670;BME280;33408;52.062;11.722;2023-10-09T03:10:22;101397.84;;;12.33;100.00
47670;BME280;33408;52.062;11.722;2023-10-09T03:12:48;101399.50;;;12.40;100.00
47670;BME280;33408;52.062;11.722;2023-10-09T03:15:18;101377.97;;;12.32;100.00
47670;BME280;33408;52.062;11.722;2023-10-09T03:17:45;101374.44;;;12.33;100.00
47670;BME280;33408;52.062;11.722;2023-10-09T03:20:14;101372.94;;;12.18;100.00
47670;BME280;33408;52.062;11.722;2023-10-09T03:22:43;101364.22;;;12.24;100.00
47670;BME280;33408;52.062;11.722;2023-10-09T03:25:10;101345.94;;;12.28;100.00
47670;BME280;33408;52.062;11.722;2023-10-09T03:27:39;101353.84;;;12.22;100.00
47670;BME280;33408;52.062;11.722;2023-10-09T03:30:08;101359.13;;;12.16;100.00
47670;BME280;33408;52.062;11.722;2023-10-09T03:32:43;101358.06;;;12.29;100.00
47670;BME280;33408;52.062;11.722;2023-10-09T03:35:15;101349.53;;;12.21;100.00
47670;BME280;33408;52.062;11.722;2023-10-09T03:37:43;101346.19;;;12.13;100.00
47670;BME280;33408;52.062;11.722;2023-10-09T03:40:10;101340.91;;;12.17;100.00
47670;BME280;33408;52.062;11.722;2023-10-09T03:42:43;101323.56;;;12.18;100.00
47670;BME280;33408;52.062;11.722;2023-10-09T03:45:10;101322.75;;;12.16;100.00
47670;BME280;33408;52.062;11.722;2023-10-09T03:47:45;101307.97;;;12.18;100.00
47670;BME280;33408;52.062;11.722;2023-10-09T03:50:13;101298.66;;;12.04;100.00
47670;BME280;33408;52.062;11.722;2023-10-09T03:52:52;101295.09;;;12.10;100.00
47670;BME280;33408;52.062;11.722;2023-10-09T03:55:20;101286.44;;;12.11;100.00
47670;BME280;33408;52.062;11.722;2023-10-09T03:57:47;101283.16;;;11.98;100.00
47670;BME280;33408;52.062;11.722;2023-10-09T04:00:15;101286.44;;;12.10;100.00
47670;BME280;33408;52.062;11.722;2023-10-09T04:02:49;101289.81;;;12.16;100.00
47670;BME280;33408;52.062;11.722;2023-10-09T04:05:18;101290.59;;;12.21;100.00
47670;BME280;33408;52.062;11.722;2023-10-09T04:07:45;101292.53;;;12.07;100.00
47670;BME280;33408;52.062;11.722;2023-10-09T04:10:14;101291.81;;;11.97;100.00
47670;BME280;33408;52.062;11.722;2023-10-09T04:12:58;101288.13;;;12.12;100.00
47670;BME280;33408;52.062;11.722;2023-10-09T04:15:26;101287.25;;;12.13;100.00
47670;BME280;33408;52.062;11.722;2023-10-09T04:17:57;101283.72;;;12.19;100.00
47670;BME280;33408;52.062;11.722;2023-10-09T04:20:24;101273.28;;;12.20;100.00
47670;BME280;33408;52.062;11.722;2023-10-09T04:23:08;101267.25;;;12.18;100.00
47670;BME280;33408;52.062;11.722;2023-10-09T04:25:41;101267.97;;;12.27;100.00
47670;BME280;33408;52.062;11.722;2023-10-09T04:28:08;101253.41;;;12.18;100.00
47670;BME280;33408;52.062;11.722;2023-10-09T04:30:44;101230.31;;;11.99;100.00
47670;BME280;33408;52.062;11.722;2023-10-09T04:33:19;101225.06;;;12.01;100.00
47670;BME280;33408;52.062;11.722;2023-10-09T04:36:01;101239.16;;;11.86;100.00
47670;BME280;33408;52.062;11.722;2023-10-09T04:38:47;101251.97;;;11.98;100.00
47670;BME280;33408;52.062;11.722;2023-10-09T04:41:21;101255.25;;;12.10;100.00
47670;BME280;33408;52.062;11.722;2023-10-09T04:43:57;101235.69;;;11.87;100.00
47670;BME280;33408;52.062;11.722;2023-10-09T04:46:44;101243.19;;;12.06;100.00
47670;BME280;33408;52.062;11.722;2023-10-09T04:49:25;101247.50;;;12.08;100.00
47670;BME280;33408;52.062;11.722;2023-10-09T04:51:52;101237.81;;;12.18;100.00
47670;BME280;33408;52.062;11.722;2023-10-09T04:54:29;101244.81;;;12.13;100.00
47670;BME280;33408;52.062;11.722;2023-10-09T04:57:04;101250.13;;;12.07;100.00
47670;BME280;33408;52.062;11.722;2023-10-09T04:59:43;101253.50;;;12.10;100.00
47670;BME280;33408;52.062;11.722;2023-10-09T05:02:13;101257.06;;;12.06;100.00
47670;BME280;33408;52.062;11.722;2023-10-09T05:04:46;101249.03;;;12.20;100.00
47670;BME280;33408;52.062;11.722;2023-10-09T05:07:26;101243.91;;;12.14;100.00
47670;BME280;33408;52.062;11.722;2023-10-09T05:10:15;101250.06;;;12.10;100.00
47670;BME280;33408;52.062;11.722;2023-10-09T05:12:42;101246.50;;;12.15;100.00
47670;BME280;33408;52.062;11.722;2023-10-09T05:15:12;101242.16;;;12.17;100.00
47670;BME280;33408;52.062;11.722;2023-10-09T05:17:40;101254.59;;;11.98;100.00
47670;BME280;33408;52.062;11.722;2023-10-09T05:20:12;101260.53;;;12.05;100.00
47670;BME280;33408;52.062;11.722;2023-10-09T05:22:57;101267.09;;;12.28;100.00
47670;BME280;33408;52.062;11.722;2023-10-09T05:25:24;101256.03;;;12.15;100.00
47670;BME280;33408;52.062;11.722;2023-10-09T05:28:18;101257.66;;;12.24;100.00
47670;BME280;33408;52.062;11.722;2023-10-09T05:31:14;101253.44;;;12.15;100.00
47670;BME280;33408;52.062;11.722;2023-10-09T05:34:02;101254.97;;;12.27;100.00
47670;BME280;33408;52.062;11.722;2023-10-09T05:36:33;101255.84;;;12.27;100.00
47670;BME280;33408;52.062;11.722;2023-10-09T05:39:01;101261.16;;;12.21;100.00
47670;BME280;33408;52.062;11.722;2023-10-09T05:41:47;101262.66;;;12.33;100.00
47670;BME280;33408;52.062;11.722;2023-10-09T05:44:18;101272.25;;;12.29;100.00
47670;BME280;33408;52.062;11.722;2023-10-09T05:47:03;101268.13;;;12.19;100.00
47670;BME280;33408;52.062;11.722;2023-10-09T05:49:47;101271.41;;;12.29;100.00
47670;BME280;33408;52.062;11.722;2023-10-09T05:52:29;101276.38;;;12.43;100.00
47670;BME280;33408;52.062;11.722;2023-10-09T05:55:08;101269.50;;;12.40;100.00
47670;BME280;33408;52.062;11.722;2023-10-09T05:57:48;101279.91;;;12.38;100.00
47670;BME280;33408;52.062;11.722;2023-10-09T06:00:32;101278.78;;;12.53;100.00
47670;BME280;33408;52.062;11.722;2023-10-09T06:03:16;101272.69;;;12.56;100.00
47670;BME280;33408;52.062;11.722;2023-10-09T06:05:50;101279.69;;;12.51;100.00
47670;BME280;33408;52.062;11.722;2023-10-09T06:08:29;101277.03;;;12.54;100.00
47670;BME280;33408;52.062;11.722;2023-10-09T06:11:27;101276.91;;;12.62;100.00
47670;BME280;33408;52.062;11.722;2023-10-09T06:14:07;101295.28;;;12.51;100.00
47670;BME280;33408;52.062;11.722;2023-10-09T06:16:40;101293.59;;;12.50;100.00
47670;BME280;33408;52.062;11.722;2023-10-09T06:19:09;101299.81;;;12.39;100.00
47670;BME280;33408;52.062;11.722;2023-10-09T06:21:38;101305.13;;;12.35;100.00
47670;BME280;33408;52.062;11.722;2023-10-09T06:24:07;101314.78;;;12.25;100.00
47670;BME280;33408;52.062;11.722;2023-10-09T06:26:42;101303.47;;;12.28;100.00
47670;BME280;33408;52.062;11.722;2023-10-09T06:29:17;101300.00;;;12.30;100.00
47670;BME280;33408;52.062;11.722;2023-10-09T06:31:59;101302.53;;;12.33;100.00
47670;BME280;33408;52.062;11.722;2023-10-09T06:34:43;101297.34;;;12.33;100.00
47670;BME280;33408;52.062;11.722;2023-10-09T06:37:11;101307.09;;;12.19;100.00
47670;BME280;33408;52.062;11.722;2023-10-09T06:40:01;101309.78;;;12.13;100.00
47670;BME280;33408;52.062;11.722;2023-10-09T06:42:45;101320.94;;;12.19;100.00
47670;BME280;33408;52.062;11.722;2023-10-09T06:45:16;101327.22;;;12.06;100.00
47670;BME280;33408;52.062;11.722;2023-10-09T06:47:47;101303.72;;;12.12;100.00
47670;BME280;33408;52.062;11.722;2023-10-09T06:50:21;101305.38;;;12.18;100.00
47670;BME280;33408;52.062;11.722;2023-10-09T06:52:52;101315.94;;;12.06;100.00
47670;BME280;33408;52.062;11.722;2023-10-09T06:55:46;101314.19;;;12.09;100.00
47670;BME280;33408;52.062;11.722;2023-10-09T06:58:15;101313.19;;;12.18;100.00
47670;BME280;33408;52.062;11.722;2023-10-09T07:00:48;101314.03;;;12.17;100.00
47670;BME280;33408;52.062;11.722;2023-10-09T07:03:40;101318.28;;;12.24;100.00
47670;BME280;33408;52.062;11.722;2023-10-09T07:06:18;101319.25;;;12.17;100.00
47670;BME280;33408;52.062;11.722;2023-10-09T07:09:10;101311.50;;;12.12;100.00
47670;BME280;33408;52.062;11.722;2023-10-09T07:11:46;101326.16;;;12.18;100.00
47670;BME280;33408;52.062;11.722;2023-10-09T07:14:35;101337.50;;;12.12;100.00
47670;BME280;33408;52.062;11.722;2023-10-09T07:17:19;101334.03;;;12.13;100.00
47670;BME280;33408;52.062;11.722;2023-10-09T07:19:52;101323.50;;;12.22;100.00
47670;BME280;33408;52.062;11.722;2023-10-09T07:22:41;101323.50;;;12.22;100.00
47670;BME280;33408;52.062;11.722;2023-10-09T07:25:21;101318.31;;;12.21;100.00
47670;BME280;33408;52.062;11.722;2023-10-09T07:27:59;101321.66;;;12.29;100.00
47670;BME280;33408;52.062;11.722;2023-10-09T07:30:28;101331.13;;;12.33;100.00
47670;BME280;33408;52.062;11.722;2023-10-09T07:33:04;101322.34;;;12.40;100.00
47670;BME280;33408;52.062;11.722;2023-10-09T07:35:43;101330.22;;;12.34;100.00
47670;BME280;33408;52.062;11.722;2023-10-09T07:38:15;101327.75;;;12.27;100.00
47670;BME280;33408;52.062;11.722;2023-10-09T07:40:45;101328.59;;;12.30;100.00
47670;BME280;33408;52.062;11.722;2023-10-09T07:43:22;101353.63;;;12.34;100.00
47670;BME280;33408;52.062;11.722;2023-10-09T07:45:52;101345.00;;;12.34;100.00
47670;BME280;33408;52.062;11.722;2023-10-09T07:48:36;101336.16;;;12.43;100.00
47670;BME280;33408;52.062;11.722;2023-10-09T07:51:17;101330.34;;;12.27;100.00
47670;BME280;33408;52.062;11.722;2023-10-09T07:53:45;101322.56;;;12.27;100.00
47670;BME280;33408;52.062;11.722;2023-10-09T07:56:15;101337.16;;;12.35;100.00
47670;BME280;33408;52.062;11.722;2023-10-09T07:58:47;101330.09;;;12.44;100.00
47670;BME280;33408;52.062;11.722;2023-10-09T08:01:17;101317.13;;;12.42;100.00
47670;BME280;33408;52.062;11.722;2023-10-09T08:03:49;101313.69;;;12.40;100.00
47670;BME280;33408;52.062;11.722;2023-10-09T08:06:23;101288.91;;;12.19;100.00
47670;BME280;33408;52.062;11.722;2023-10-09T08:09:04;101304.44;;;12.24;100.00
47670;BME280;33408;52.062;11.722;2023-10-09T08:11:44;101324.13;;;12.37;100.00
47670;BME280;33408;52.062;11.722;2023-10-09T08:14:41;101325.84;;;12.38;100.00
47670;BME280;33408;52.062;11.722;2023-10-09T08:17:14;101349.16;;;12.43;100.00
47670;BME280;33408;52.062;11.722;2023-10-09T08:19:46;101343.19;;;12.37;100.00
47670;BME280;33408;52.062;11.722;2023-10-09T08:22:21;101346.69;;;12.36;100.00
47670;BME280;33408;52.062;11.722;2023-10-09T08:25:05;101343.06;;;12.45;100.00
47670;BME280;33408;52.062;11.722;2023-10-09T08:27:33;101340.41;;;12.50;100.00
47670;BME280;33408;52.062;11.722;2023-10-09T08:30:21;101332.53;;;12.54;100.00
47670;BME280;33408;52.062;11.722;2023-10-09T08:33:14;101310.97;;;12.48;100.00
47670;BME280;33408;52.062;11.722;2023-10-09T08:35:58;101320.38;;;12.55;100.00
47670;BME280;33408;52.062;11.722;2023-10-09T08:38:29;101313.44;;;12.54;100.00
47670;BME280;33408;52.062;11.722;2023-10-09T08:41:06;101318.91;;;12.38;100.00
47670;BME280;33408;52.062;11.722;2023-10-09T08:43:45;101323.16;;;12.43;100.00
47670;BME280;33408;52.062;11.722;2023-10-09T08:46:18;101330.91;;;12.47;100.00
47670;BME280;33408;52.062;11.722;2023-10-09T08:48:45;101324.78;;;12.51;100.00
47670;BME280;33408;52.062;11.722;2023-10-09T08:51:12;101328.06;;;12.61;100.00
47670;BME280;33408;52.062;11.722;2023-10-09T08:53:40;101328.06;;;12.61;100.00
47670;BME280;33408;52.062;11.722;2023-10-09T08:56:09;101319.47;;;12.57;100.00
47670;BME280;33408;52.062;11.722;2023-10-09T08:58:36;101315.03;;;12.63;100.00
47670;BME280;33408;52.062;11.722;2023-10-09T09:01:04;101314.28;;;12.56;100.00
47670;BME280;33408;52.062;11.722;2023-10-09T09:03:39;101318.44;;;12.66;100.00
47670;BME280;33408;52.062;11.722;2023-10-09T09:06:06;101313.50;;;12.49;100.00
47670;BME280;33408;52.062;11.722;2023-10-09T09:08:33;101316.53;;;12.76;100.00
47670;BME280;33408;52.062;11.722;2023-10-09T09:11:07;101311.75;;;12.53;100.00
47670;BME280;33408;52.062;11.722;2023-10-09T09:13:39;101306.25;;;12.68;100.00
47670;BME280;33408;52.062;11.722;2023-10-09T09:16:14;101293.19;;;12.71;100.00
47670;BME280;33408;52.062;11.722;2023-10-09T09:18:53;101293.00;;;12.82;100.00
47670;BME280;33408;52.062;11.722;2023-10-09T09:21:29;101308.84;;;12.68;100.00
47670;BME280;33408;52.062;11.722;2023-10-09T09:24:02;101320.97;;;12.71;100.00
47670;BME280;33408;52.062;11.722;2023-10-09T09:26:40;101313.78;;;12.84;100.00
47670;BME280;33408;52.062;11.722;2023-10-09T09:29:11;101321.63;;;12.82;100.00
47670;BME280;33408;52.062;11.722;2023-10-09T09:31:51;101312.09;;;12.81;100.00
47670;BME280;33408;52.062;11.722;2023-10-09T09:34:19;101319.84;;;12.84;100.00
47670;BME280;33408;52.062;11.722;2023-10-09T09:36:53;101320.50;;;12.95;100.00
47670;BME280;33408;52.062;11.722;2023-10-09T09:39:26;101325.03;;;12.84;100.00
47670;BME280;33408;52.062;11.722;2023-10-09T09:41:56;101326.28;;;12.63;100.00
47670;BME280;33408;52.062;11.722;2023-10-09T09:44:30;101318.81;;;12.94;100.00
47670;BME280;33408;52.062;11.722;2023-10-09T09:46:59;101324.63;;;13.07;100.00
47670;BME280;33408;52.062;11.722;2023-10-09T09:49:28;101320.88;;;13.21;100.00
47670;BME280;33408;52.062;11.722;2023-10-09T09:52:01;101325.09;;;13.26;100.00
47670;BME280;33408;52.062;11.722;2023-10-09T09:54:35;101316.44;;;13.26;100.00
47670;BME280;33408;52.062;11.722;2023-10-09T09:57:03;101313.09;;;13.21;100.00
47670;BME280;33408;52.062;11.722;2023-10-09T09:59:37;101306.41;;;13.07;100.00
47670;BME280;33408;52.062;11.722;2023-10-09T10:02:05;101302.47;;;13.33;100.00
47670;BME280;33408;52.062;11.722;2023-10-09T10:04:37;101297.03;;;13.42;100.00
47670;BME280;33408;52.062;11.722;2023-10-09T10:07:06;101290.28;;;13.32;100.00
47670;BME280;33408;52.062;11.722;2023-10-09T10:09:36;101282.25;;;13.44;100.00
47670;BME280;33408;52.062;11.722;2023-10-09T10:12:07;101281.63;;;13.72;100.00
47670;BME280;33408;52.062;11.722;2023-10-09T10:14:51;101286.81;;;13.74;100.00
47670;BME280;33408;52.062;11.722;2023-10-09T10:17:22;101291.16;;;13.73;100.00
47670;BME280;33408;52.062;11.722;2023-10-09T10:20:07;101291.34;;;13.65;100.00
47670;BME280;33408;52.062;11.722;2023-10-09T10:22:52;101291.47;;;13.59;100.00
47670;BME280;33408;52.062;11.722;2023-10-09T10:25:42;101282.97;;;13.51;100.00
47670;BME280;33408;52.062;11.722;2023-10-09T10:28:21;101286.16;;;13.64;100.00
47670;BME280;33408;52.062;11.722;2023-10-09T10:31:03;101293.69;;;13.76;100.00
47670;BME280;33408;52.062;11.722;2023-10-09T10:34:05;101288.53;;;13.73;100.00
47670;BME280;33408;52.062;11.722;2023-10-09T10:36:37;101288.47;;;13.76;100.00
47670;BME280;33408;52.062;11.722;2023-10-09T10:39:08;101291.09;;;13.75;100.00
47670;BME280;33408;52.062;11.722;2023-10-09T10:41:37;101295.72;;;13.63;100.00
47670;BME280;33408;52.062;11.722;2023-10-09T10:44:23;101302.63;;;13.66;100.00
47670;BME280;33408;52.062;11.722;2023-10-09T10:47:09;101300.06;;;13.63;100.00
47670;BME280;33408;52.062;11.722;2023-10-09T10:49:48;101297.38;;;13.67;100.00
47670;BME280;33408;52.062;11.722;2023-10-09T10:52:22;101295.38;;;13.79;100.00
47670;BME280;33408;52.062;11.722;2023-10-09T10:55:07;101298.22;;;13.68;100.00
47670;BME280;33408;52.062;11.722;2023-10-09T10:57:43;101302.41;;;13.75;100.00
47670;BME280;33408;52.062;11.722;2023-10-09T11:00:26;101303.28;;;13.74;100.00
47670;BME280;33408;52.062;11.722;2023-10-09T11:03:17;101296.25;;;13.78;100.00
47670;BME280;33408;52.062;11.722;2023-10-09T11:05:54;101300.66;;;13.76;100.00
47670;BME280;33408;52.062;11.722;2023-10-09T11:08:25;101299.38;;;13.94;100.00
47670;BME280;33408;52.062;11.722;2023-10-09T11:11:10;101299.44;;;13.91;100.00
47670;BME280;33408;52.062;11.722;2023-10-09T11:13:44;101299.44;;;13.91;100.00
47670;BME280;33408;52.062;11.722;2023-10-09T11:16:22;101305.63;;;13.86;100.00
47670;BME280;33408;52.062;11.722;2023-10-09T11:19:07;101300.25;;;13.94;100.00
47670;BME280;33408;52.062;11.722;2023-10-09T11:21:49;101296.09;;;13.85;100.00
47670;BME280;33408;52.062;11.722;2023-10-09T11:24:26;101287.38;;;13.86;100.00
47670;BME280;33408;52.062;11.722;2023-10-09T11:26:53;101289.66;;;14.00;100.00
47670;BME280;33408;52.062;11.722;2023-10-09T11:29:21;101286.50;;;13.86;100.00
47670;BME280;33408;52.062;11.722;2023-10-09T11:32:16;101292.94;;;13.71;100.00
47670;BME280;33408;52.062;11.722;2023-10-09T11:34:43;101294.28;;;13.88;100.00
47670;BME280;33408;52.062;11.722;2023-10-09T11:37:17;101286.09;;;13.67;100.00
47670;BME280;33408;52.062;11.722;2023-10-09T11:39:59;101292.59;;;13.86;100.00
47670;BME280;33408;52.062;11.722;2023-10-09T11:42:28;101289.72;;;13.97;100.00
47670;BME280;33408;52.062;11.722;2023-10-09T11:45:05;101290.84;;;13.87;100.00
47670;BME280;33408;52.062;11.722;2023-10-09T11:47:45;101292.28;;;13.99;100.00
47670;BME280;33408;52.062;11.722;2023-10-09T11:50:19;101289.56;;;14.03;100.00
47670;BME280;33408;52.062;11.722;2023-10-09T11:52:56;101294.78;;;14.03;100.00
47670;BME280;33408;52.062;11.722;2023-10-09T11:55:36;101285.28;;;14.02;100.00
47670;BME280;33408;52.062;11.722;2023-10-09T11:58:03;101280.72;;;14.11;100.00
47670;BME280;33408;52.062;11.722;2023-10-09T12:00:30;101288.75;;;14.01;100.00
47670;BME280;33408;52.062;11.722;2023-10-09T12:03:08;101286.06;;;14.06;100.00
47670;BME280;33408;52.062;11.722;2023-10-09T12:05:34;101290.06;;;14.19;100.00
47670;BME280;33408;52.062;11.722;2023-10-09T12:08:02;101283.34;;;14.11;100.00
47670;BME280;33408;52.062;11.722;2023-10-09T12:10:33;101268.72;;;14.03;100.00
47670;BME280;33408;52.062;11.722;2023-10-09T12:13:05;101278.34;;;14.01;100.00
47670;BME280;33408;52.062;11.722;2023-10-09T12:15:32;101276.06;;;14.23;100.00
47670;BME280;33408;52.062;11.722;2023-10-09T12:18:04;101285.38;;;13.98;100.00
47670;BME280;33408;52.062;11.722;2023-10-09T12:20:34;101289.66;;;14.00;100.00
47670;BME280;33408;52.062;11.722;2023-10-09T12:23:02;101290.75;;;13.92;100.00
47670;BME280;33408;52.062;11.722;2023-10-09T12:25:30;101278.53;;;13.94;100.00
47670;BME280;33408;52.062;11.722;2023-10-09T12:27:58;101278.34;;;14.01;100.00
47670;BME280;33408;52.062;11.722;2023-10-09T12:30:28;101283.59;;;14.00;100.00
47670;BME280;33408;52.062;11.722;2023-10-09T12:32:54;101285.22;;;14.06;100.00
47670;BME280;33408;52.062;11.722;2023-10-09T12:35:23;101274.47;;;14.18;100.00
47670;BME280;33408;52.062;11.722;2023-10-09T12:37:51;101279.78;;;14.13;100.00
47670;BME280;33408;52.062;11.722;2023-10-09T12:40:17;101268.09;;;13.94;100.00
47670;BME280;33408;52.062;11.722;2023-10-09T12:42:50;101258.44;;;13.97;100.00
47670;BME280;33408;52.062;11.722;2023-10-09T12:45:17;101262.91;;;13.92;100.00
47670;BME280;33408;52.062;11.722;2023-10-09T12:47:53;101257.41;;;14.04;100.00
47670;BME280;33408;52.062;11.722;2023-10-09T12:50:24;101266.03;;;14.07;100.00
47670;BME280;33408;52.062;11.722;2023-10-09T12:52:55;101258.94;;;14.13;100.00
47670;BME280;33408;52.062;11.722;2023-10-09T12:55:23;101261.94;;;13.98;100.00
47670;BME280;33408;52.062;11.722;2023-10-09T12:57:59;101264.31;;;14.07;100.00
47670;BME280;33408;52.062;11.722;2023-10-09T13:00:29;101265.94;;;14.11;100.00
47670;BME280;33408;52.062;11.722;2023-10-09T13:02:59;101265.06;;;14.12;100.00
47670;BME280;33408;52.062;11.722;2023-10-09T13:05:28;101258.78;;;14.19;100.00